Anna, Illinois
Current Conditions -  °F | °C
As of 8:34 PM on Sunday 25 Jan 2015 (Local Time) from KMDH Reporting Station
Overcast Overcast  
Wind Chill: -4°   Ceiling: 1000
Heat Index:   Visibility: 10mi
Dew Point:   Wind: 22mph
Humidity: 89%   Direction: 340°NNW
Pressure: 29.85"   Gusts: 31mph
Location:  37.46°N, 89.25°W
Report Text: KMDH 260234Z AUTO 34019G27KT 10SM OVC010 02/01 A2985 RMK AO2 PK WND 35030/0206 RAB0153E10 P0000 T00220006
Loading
Personal Weather Stations






























Interactive Weather Map New forecast layout! Learn more

10-Day Weather Forecast

Advertisements
Track Severe Weather on mobile